sensor_id;sensor_type;location;lat;lon;timestamp;pressure;altitude;pressure_sealevel;temperature;humidity
60246;BME280;46107;53.356;-1.524;2023-02-16T00:02:10;99170.09;;;7.09;61.70
60246;BME280;46107;53.356;-1.524;2023-02-16T00:04:37;99167.32;;;7.03;59.70
60246;BME280;46107;53.356;-1.524;2023-02-16T00:07:04;99164.51;;;7.24;58.83
60246;BME280;46107;53.356;-1.524;2023-02-16T00:09:32;99157.20;;;7.55;58.10
60246;BME280;46107;53.356;-1.524;2023-02-16T00:12:00;99149.15;;;7.80;57.12
60246;BME280;46107;53.356;-1.524;2023-02-16T00:14:28;99144.32;;;7.74;56.93
60246;BME280;46107;53.356;-1.524;2023-02-16T00:16:57;99147.09;;;6.06;60.07
60246;BME280;46107;53.356;-1.524;2023-02-16T00:19:27;99151.47;;;6.55;60.97
60246;BME280;46107;53.356;-1.524;2023-02-16T00:21:57;99151.97;;;7.44;58.45
60246;BME280;46107;53.356;-1.524;2023-02-16T00:24:26;99150.40;;;6.80;62.15
60246;BME280;46107;53.356;-1.524;2023-02-16T00:26:55;99140.39;;;6.93;59.34
60246;BME280;46107;53.356;-1.524;2023-02-16T00:29:26;99138.92;;;6.88;59.54
60246;BME280;46107;53.356;-1.524;2023-02-16T00:31:57;99140.00;;;6.75;59.81
60246;BME280;46107;53.356;-1.524;2023-02-16T00:34:28;99131.43;;;6.57;60.22
60246;BME280;46107;53.356;-1.524;2023-02-16T00:36:57;99133.97;;;6.06;60.80
60246;BME280;46107;53.356;-1.524;2023-02-16T00:39:25;99132.25;;;7.37;59.60
60246;BME280;46107;53.356;-1.524;2023-02-16T00:41:55;99129.23;;;6.52;60.50
60246;BME280;46107;53.356;-1.524;2023-02-16T00:44:30;99122.44;;;6.80;60.32
60246;BME280;46107;53.356;-1.524;2023-02-16T00:47:02;99122.50;;;7.42;58.74
60246;BME280;46107;53.356;-1.524;2023-02-16T00:49:29;99121.76;;;7.26;59.22
60246;BME280;46107;53.356;-1.524;2023-02-16T00:51:57;99123.73;;;7.14;58.86
60246;BME280;46107;53.356;-1.524;2023-02-16T00:54:24;99128.15;;;7.10;57.62
60246;BME280;46107;53.356;-1.524;2023-02-16T00:56:52;99137.14;;;7.42;57.40
60246;BME280;46107;53.356;-1.524;2023-02-16T00:59:21;99134.25;;;7.62;56.59
60246;BME280;46107;53.356;-1.524;2023-02-16T01:01:49;99125.81;;;6.07;59.83
60246;BME280;46107;53.356;-1.524;2023-02-16T01:04:20;99123.93;;;6.66;59.09
60246;BME280;46107;53.356;-1.524;2023-02-16T01:06:48;99111.00;;;6.57;59.03
60246;BME280;46107;53.356;-1.524;2023-02-16T01:09:17;99108.16;;;6.68;58.31
60246;BME280;46107;53.356;-1.524;2023-02-16T01:11:45;99098.27;;;7.10;57.48
60246;BME280;46107;53.356;-1.524;2023-02-16T01:14:12;99091.04;;;6.22;59.02
60246;BME280;46107;53.356;-1.524;2023-02-16T01:16:41;99106.00;;;5.87;59.00
60246;BME280;46107;53.356;-1.524;2023-02-16T01:19:10;99094.17;;;6.04;58.94
60246;BME280;46107;53.356;-1.524;2023-02-16T01:21:38;99097.72;;;6.03;57.46
60246;BME280;46107;53.356;-1.524;2023-02-16T01:24:07;99096.64;;;5.94;58.36
60246;BME280;46107;53.356;-1.524;2023-02-16T01:26:38;99098.40;;;5.98;58.01
60246;BME280;46107;53.356;-1.524;2023-02-16T01:29:06;99097.49;;;6.25;56.33
60246;BME280;46107;53.356;-1.524;2023-02-16T01:31:34;99101.76;;;6.00;57.32
60246;BME280;46107;53.356;-1.524;2023-02-16T01:34:01;99098.82;;;6.30;56.43
60246;BME280;46107;53.356;-1.524;2023-02-16T01:36:33;99102.03;;;5.86;59.13
60246;BME280;46107;53.356;-1.524;2023-02-16T01:39:02;99100.33;;;6.74;56.13
60246;BME280;46107;53.356;-1.524;2023-02-16T01:41:43;99097.04;;;6.82;55.34
60246;BME280;46107;53.356;-1.524;2023-02-16T01:44:14;99095.65;;;6.57;56.70
60246;BME280;46107;53.356;-1.524;2023-02-16T01:46:51;99093.65;;;6.36;57.13
60246;BME280;46107;53.356;-1.524;2023-02-16T01:49:20;99094.24;;;7.04;54.61
60246;BME280;46107;53.356;-1.524;2023-02-16T01:51:54;99086.03;;;6.67;55.50
60246;BME280;46107;53.356;-1.524;2023-02-16T01:54:33;99083.36;;;6.21;56.45
60246;BME280;46107;53.356;-1.524;2023-02-16T01:57:08;99078.06;;;6.40;57.11
60246;BME280;46107;53.356;-1.524;2023-02-16T02:00:01;99076.93;;;7.72;53.40
60246;BME280;46107;53.356;-1.524;2023-02-16T02:02:34;99071.60;;;7.01;54.23
60246;BME280;46107;53.356;-1.524;2023-02-16T02:05:07;99064.91;;;6.50;54.69
60246;BME280;46107;53.356;-1.524;2023-02-16T02:07:45;99061.76;;;6.79;55.53
60246;BME280;46107;53.356;-1.524;2023-02-16T02:10:19;99062.80;;;6.60;56.07
60246;BME280;46107;53.356;-1.524;2023-02-16T02:12:52;99054.14;;;7.19;54.57
60246;BME280;46107;53.356;-1.524;2023-02-16T02:15:27;99057.34;;;6.79;54.73
60246;BME280;46107;53.356;-1.524;2023-02-16T02:17:56;99052.16;;;5.67;57.32
60246;BME280;46107;53.356;-1.524;2023-02-16T02:20:27;99050.10;;;6.32;55.71
60246;BME280;46107;53.356;-1.524;2023-02-16T02:23:42;99047.35;;;7.01;54.47
60246;BME280;46107;53.356;-1.524;2023-02-16T02:26:39;99041.90;;;6.94;54.10
60246;BME280;46107;53.356;-1.524;2023-02-16T02:30:02;99040.85;;;6.84;55.97
60246;BME280;46107;53.356;-1.524;2023-02-16T02:32:41;99037.52;;;6.77;55.62
60246;BME280;46107;53.356;-1.524;2023-02-16T02:35:26;99035.31;;;6.68;56.91
60246;BME280;46107;53.356;-1.524;2023-02-16T02:37:58;99023.36;;;6.23;57.91
60246;BME280;46107;53.356;-1.524;2023-02-16T02:40:37;99014.87;;;6.53;56.47
60246;BME280;46107;53.356;-1.524;2023-02-16T02:43:13;99009.60;;;7.28;54.67
60246;BME280;46107;53.356;-1.524;2023-02-16T02:45:51;99006.90;;;7.72;54.88
60246;BME280;46107;53.356;-1.524;2023-02-16T02:48:20;99010.53;;;6.88;56.64
60246;BME280;46107;53.356;-1.524;2023-02-16T02:50:50;99013.54;;;6.85;56.15
60246;BME280;46107;53.356;-1.524;2023-02-16T02:53:18;99013.06;;;7.44;54.75
60246;BME280;46107;53.356;-1.524;2023-02-16T02:55:48;99009.49;;;7.87;53.79
60246;BME280;46107;53.356;-1.524;2023-02-16T02:58:20;99005.29;;;6.88;54.68
60246;BME280;46107;53.356;-1.524;2023-02-16T03:00:49;98998.66;;;7.25;54.78
60246;BME280;46107;53.356;-1.524;2023-02-16T03:03:21;99003.90;;;7.21;55.72
60246;BME280;46107;53.356;-1.524;2023-02-16T03:05:53;99003.71;;;6.87;55.95
60246;BME280;46107;53.356;-1.524;2023-02-16T03:08:28;99001.36;;;6.57;57.16
60246;BME280;46107;53.356;-1.524;2023-02-16T03:10:58;98994.11;;;7.10;57.05
60246;BME280;46107;53.356;-1.524;2023-02-16T03:13:31;98993.68;;;5.98;60.16
60246;BME280;46107;53.356;-1.524;2023-02-16T03:16:02;98981.94;;;6.04;61.10
60246;BME280;46107;53.356;-1.524;2023-02-16T03:18:33;98975.46;;;6.16;62.06
60246;BME280;46107;53.356;-1.524;2023-02-16T03:21:03;98976.52;;;5.52;67.57
60246;BME280;46107;53.356;-1.524;2023-02-16T03:23:31;98971.24;;;6.07;67.47
60246;BME280;46107;53.356;-1.524;2023-02-16T03:26:00;98970.80;;;6.28;66.38
60246;BME280;46107;53.356;-1.524;2023-02-16T03:28:29;98963.94;;;6.15;67.36
60246;BME280;46107;53.356;-1.524;2023-02-16T03:30:59;98955.58;;;5.24;71.12
60246;BME280;46107;53.356;-1.524;2023-02-16T03:33:29;98948.76;;;5.83;69.78
60246;BME280;46107;53.356;-1.524;2023-02-16T03:35:58;98939.98;;;5.11;74.13
60246;BME280;46107;53.356;-1.524;2023-02-16T03:38:26;98933.82;;;5.53;73.87
60246;BME280;46107;53.356;-1.524;2023-02-16T03:40:54;98928.36;;;4.96;73.80
60246;BME280;46107;53.356;-1.524;2023-02-16T03:43:24;98934.01;;;5.68;74.92
60246;BME280;46107;53.356;-1.524;2023-02-16T03:45:52;98926.28;;;5.33;76.85
60246;BME280;46107;53.356;-1.524;2023-02-16T03:48:20;98927.99;;;5.73;76.11
60246;BME280;46107;53.356;-1.524;2023-02-16T03:50:48;98928.09;;;6.10;75.07
60246;BME280;46107;53.356;-1.524;2023-02-16T03:53:16;98930.75;;;5.33;78.13
60246;BME280;46107;53.356;-1.524;2023-02-16T03:55:46;98933.68;;;4.88;80.90
60246;BME280;46107;53.356;-1.524;2023-02-16T03:58:20;98932.54;;;6.33;76.49
60246;BME280;46107;53.356;-1.524;2023-02-16T04:00:49;98927.27;;;5.85;77.41
60246;BME280;46107;53.356;-1.524;2023-02-16T04:03:16;98926.25;;;5.17;78.07
60246;BME280;46107;53.356;-1.524;2023-02-16T04:05:45;98917.57;;;5.30;77.52
60246;BME280;46107;53.356;-1.524;2023-02-16T04:08:12;98915.30;;;5.81;76.26
60246;BME280;46107;53.356;-1.524;2023-02-16T04:10:40;98906.05;;;6.02;77.00
60246;BME280;46107;53.356;-1.524;2023-02-16T04:13:07;98902.68;;;5.58;79.59
60246;BME280;46107;53.356;-1.524;2023-02-16T04:15:35;98897.79;;;4.43;83.42
60246;BME280;46107;53.356;-1.524;2023-02-16T04:18:03;98894.09;;;5.01;82.53
60246;BME280;46107;53.356;-1.524;2023-02-16T04:20:32;98894.35;;;5.58;80.17
60246;BME280;46107;53.356;-1.524;2023-02-16T04:23:02;98898.85;;;5.45;81.54
60246;BME280;46107;53.356;-1.524;2023-02-16T04:25:30;98900.19;;;5.29;81.26
60246;BME280;46107;53.356;-1.524;2023-02-16T04:27:58;98902.12;;;4.31;86.26
60246;BME280;46107;53.356;-1.524;2023-02-16T04:30:29;98885.47;;;4.66;87.37
60246;BME280;46107;53.356;-1.524;2023-02-16T04:32:56;98878.30;;;5.33;84.53
60246;BME280;46107;53.356;-1.524;2023-02-16T04:35:23;98883.11;;;4.63;85.98
60246;BME280;46107;53.356;-1.524;2023-02-16T04:37:51;98878.35;;;5.09;84.67
60246;BME280;46107;53.356;-1.524;2023-02-16T04:40:18;98878.33;;;4.75;84.89
60246;BME280;46107;53.356;-1.524;2023-02-16T04:42:46;98877.56;;;4.05;89.87
60246;BME280;46107;53.356;-1.524;2023-02-16T04:45:13;98871.54;;;3.88;91.18
60246;BME280;46107;53.356;-1.524;2023-02-16T04:47:43;98871.79;;;4.22;90.65
60246;BME280;46107;53.356;-1.524;2023-02-16T04:50:11;98871.84;;;4.65;88.89
60246;BME280;46107;53.356;-1.524;2023-02-16T04:52:39;98870.12;;;4.68;88.55
60246;BME280;46107;53.356;-1.524;2023-02-16T04:55:07;98866.50;;;4.56;88.31
60246;BME280;46107;53.356;-1.524;2023-02-16T04:57:35;98867.57;;;4.44;88.41
60246;BME280;46107;53.356;-1.524;2023-02-16T05:00:03;98873.25;;;4.35;91.23
60246;BME280;46107;53.356;-1.524;2023-02-16T05:02:31;98871.13;;;4.15;90.99
60246;BME280;46107;53.356;-1.524;2023-02-16T05:04:59;98860.70;;;4.64;88.37
60246;BME280;46107;53.356;-1.524;2023-02-16T05:07:26;98856.68;;;4.94;87.14
60246;BME280;46107;53.356;-1.524;2023-02-16T05:09:54;98854.24;;;4.91;87.06
60246;BME280;46107;53.356;-1.524;2023-02-16T05:12:21;98855.98;;;4.71;88.88
60246;BME280;46107;53.356;-1.524;2023-02-16T05:14:49;98856.57;;;3.88;93.17
60246;BME280;46107;53.356;-1.524;2023-02-16T05:17:18;98852.24;;;4.52;89.01
60246;BME280;46107;53.356;-1.524;2023-02-16T05:19:48;98848.45;;;4.79;90.13
60246;BME280;46107;53.356;-1.524;2023-02-16T05:22:21;98840.73;;;4.30;93.43
60246;BME280;46107;53.356;-1.524;2023-02-16T05:24:49;98832.04;;;4.67;93.21
60246;BME280;46107;53.356;-1.524;2023-02-16T05:27:18;98828.68;;;4.15;95.76
60246;BME280;46107;53.356;-1.524;2023-02-16T05:29:46;98827.34;;;4.37;94.02
60246;BME280;46107;53.356;-1.524;2023-02-16T05:32:14;98831.19;;;3.75;98.96
60246;BME280;46107;53.356;-1.524;2023-02-16T05:34:43;98826.64;;;3.45;100.00
60246;BME280;46107;53.356;-1.524;2023-02-16T05:37:11;98820.98;;;3.79;100.00
60246;BME280;46107;53.356;-1.524;2023-02-16T05:39:39;98820.74;;;3.54;100.00
60246;BME280;46107;53.356;-1.524;2023-02-16T05:42:08;98812.72;;;5.00;96.78
60246;BME280;46107;53.356;-1.524;2023-02-16T05:44:36;98811.78;;;4.34;96.80
60246;BME280;46107;53.356;-1.524;2023-02-16T05:47:04;98809.24;;;4.53;97.16
60246;BME280;46107;53.356;-1.524;2023-02-16T05:49:31;98808.64;;;4.54;96.59
60246;BME280;46107;53.356;-1.524;2023-02-16T05:51:58;98811.50;;;3.52;100.00
60246;BME280;46107;53.356;-1.524;2023-02-16T05:54:25;98803.26;;;3.83;100.00
60246;BME280;46107;53.356;-1.524;2023-02-16T05:56:53;98796.57;;;5.30;93.56
60246;BME280;46107;53.356;-1.524;2023-02-16T05:59:21;98797.93;;;5.01;93.82
60246;BME280;46107;53.356;-1.524;2023-02-16T06:01:49;98797.97;;;3.72;97.46
60246;BME280;46107;53.356;-1.524;2023-02-16T06:04:16;98800.19;;;5.10;95.83
60246;BME280;46107;53.356;-1.524;2023-02-16T06:06:45;98797.70;;;5.32;91.81
60246;BME280;46107;53.356;-1.524;2023-02-16T06:09:13;98798.75;;;5.57;91.88
60246;BME280;46107;53.356;-1.524;2023-02-16T06:11:41;98794.97;;;5.43;89.83
60246;BME280;46107;53.356;-1.524;2023-02-16T06:14:09;98792.95;;;4.98;93.63
60246;BME280;46107;53.356;-1.524;2023-02-16T06:16:40;98791.27;;;5.09;92.34
60246;BME280;46107;53.356;-1.524;2023-02-16T06:19:07;98792.14;;;5.67;91.58
60246;BME280;46107;53.356;-1.524;2023-02-16T06:21:36;98795.95;;;4.99;95.09
60246;BME280;46107;53.356;-1.524;2023-02-16T06:24:05;98793.26;;;4.98;93.76
60246;BME280;46107;53.356;-1.524;2023-02-16T06:26:34;98790.88;;;4.58;99.22
60246;BME280;46107;53.356;-1.524;2023-02-16T06:29:02;98797.33;;;5.09;97.01
60246;BME280;46107;53.356;-1.524;2023-02-16T06:31:29;98793.65;;;4.95;95.69
60246;BME280;46107;53.356;-1.524;2023-02-16T06:33:58;98796.32;;;4.31;100.00
60246;BME280;46107;53.356;-1.524;2023-02-16T06:36:26;98793.84;;;4.90;96.12
60246;BME280;46107;53.356;-1.524;2023-02-16T06:38:53;98792.41;;;4.92;97.30
60246;BME280;46107;53.356;-1.524;2023-02-16T06:41:20;98791.09;;;4.45;98.04
60246;BME280;46107;53.356;-1.524;2023-02-16T06:43:48;98797.70;;;3.82;100.00
60246;BME280;46107;53.356;-1.524;2023-02-16T06:46:15;98793.86;;;4.88;98.97
60246;BME280;46107;53.356;-1.524;2023-02-16T06:48:44;98794.50;;;4.87;100.00
60246;BME280;46107;53.356;-1.524;2023-02-16T06:51:12;98800.17;;;5.04;100.00
60246;BME280;46107;53.356;-1.524;2023-02-16T06:53:43;98805.42;;;4.84;100.00
60246;BME280;46107;53.356;-1.524;2023-02-16T06:56:10;98805.32;;;5.15;98.71
60246;BME280;46107;53.356;-1.524;2023-02-16T06:58:37;98800.72;;;4.29;99.50
60246;BME280;46107;53.356;-1.524;2023-02-16T07:01:05;98799.46;;;4.64;100.00
60246;BME280;46107;53.356;-1.524;2023-02-16T07:03:32;98798.08;;;5.08;97.62
60246;BME280;46107;53.356;-1.524;2023-02-16T07:06:00;98801.03;;;5.47;97.85
60246;BME280;46107;53.356;-1.524;2023-02-16T07:08:27;98797.14;;;5.61;94.36
60246;BME280;46107;53.356;-1.524;2023-02-16T07:10:55;98798.21;;;4.80;96.48
60246;BME280;46107;53.356;-1.524;2023-02-16T07:13:22;98798.08;;;4.97;97.33
60246;BME280;46107;53.356;-1.524;2023-02-16T07:15:50;98804.04;;;4.78;98.62
60246;BME280;46107;53.356;-1.524;2023-02-16T07:18:17;98795.74;;;5.26;94.57
60246;BME280;46107;53.356;-1.524;2023-02-16T07:20:46;98793.44;;;5.27;95.79
60246;BME280;46107;53.356;-1.524;2023-02-16T07:23:13;98793.80;;;5.82;95.34
60246;BME280;46107;53.356;-1.524;2023-02-16T07:25:41;98785.19;;;6.07;92.70
60246;BME280;46107;53.356;-1.524;2023-02-16T07:28:08;98784.40;;;5.76;91.53
60246;BME280;46107;53.356;-1.524;2023-02-16T07:30:36;98782.14;;;5.48;94.87
60246;BME280;46107;53.356;-1.524;2023-02-16T07:33:04;98781.34;;;6.36;91.10
60246;BME280;46107;53.356;-1.524;2023-02-16T07:35:31;98779.83;;;6.03;91.23
60246;BME280;46107;53.356;-1.524;2023-02-16T07:38:00;98775.03;;;6.24;91.76
60246;BME280;46107;53.356;-1.524;2023-02-16T07:40:28;98779.71;;;5.60;92.61
60246;BME280;46107;53.356;-1.524;2023-02-16T07:42:59;98776.71;;;6.07;92.95
60246;BME280;46107;53.356;-1.524;2023-02-16T07:45:28;98774.67;;;6.42;90.05
60246;BME280;46107;53.356;-1.524;2023-02-16T07:47:56;98777.04;;;6.50;92.04
60246;BME280;46107;53.356;-1.524;2023-02-16T07:50:23;98788.89;;;5.32;93.41
60246;BME280;46107;53.356;-1.524;2023-02-16T07:52:50;98782.04;;;6.25;91.31
60246;BME280;46107;53.356;-1.524;2023-02-16T07:55:18;98791.51;;;6.61;90.45
60246;BME280;46107;53.356;-1.524;2023-02-16T07:57:47;98804.02;;;5.52;95.46
60246;BME280;46107;53.356;-1.524;2023-02-16T08:00:15;98798.11;;;6.18;96.55
60246;BME280;46107;53.356;-1.524;2023-02-16T08:02:43;98793.91;;;6.21;94.69
60246;BME280;46107;53.356;-1.524;2023-02-16T08:05:11;98796.81;;;5.92;97.53
60246;BME280;46107;53.356;-1.524;2023-02-16T08:07:39;98786.80;;;6.03;93.44
60246;BME280;46107;53.356;-1.524;2023-02-16T08:10:07;98784.68;;;5.93;96.56
60246;BME280;46107;53.356;-1.524;2023-02-16T08:12:36;98786.68;;;5.57;96.50
60246;BME280;46107;53.356;-1.524;2023-02-16T08:15:04;98785.87;;;5.61;98.66
60246;BME280;46107;53.356;-1.524;2023-02-16T08:17:33;98784.35;;;5.92;96.32
60246;BME280;46107;53.356;-1.524;2023-02-16T08:20:02;98780.80;;;5.49;100.00
60246;BME280;46107;53.356;-1.524;2023-02-16T08:22:29;98787.12;;;5.38;100.00
60246;BME280;46107;53.356;-1.524;2023-02-16T08:24:57;98790.21;;;4.75;100.00
60246;BME280;46107;53.356;-1.524;2023-02-16T08:27:24;98777.86;;;5.04;100.00
60246;BME280;46107;53.356;-1.524;2023-02-16T08:29:52;98776.36;;;5.71;100.00
60246;BME280;46107;53.356;-1.524;2023-02-16T08:32:19;98786.16;;;5.21;100.00
60246;BME280;46107;53.356;-1.524;2023-02-16T08:34:47;98795.60;;;5.77;100.00
60246;BME280;46107;53.356;-1.524;2023-02-16T08:37:14;98788.91;;;5.96;100.00
60246;BME280;46107;53.356;-1.524;2023-02-16T08:39:42;98799.02;;;5.53;100.00
60246;BME280;46107;53.356;-1.524;2023-02-16T08:42:11;98818.03;;;5.37;100.00
60246;BME280;46107;53.356;-1.524;2023-02-16T08:44:39;98819.71;;;5.79;100.00
60246;BME280;46107;53.356;-1.524;2023-02-16T08:47:07;98810.15;;;6.41;100.00
60246;BME280;46107;53.356;-1.524;2023-02-16T08:49:36;98806.74;;;7.30;95.63
60246;BME280;46107;53.356;-1.524;2023-02-16T08:52:03;98791.86;;;6.16;98.84
60246;BME280;46107;53.356;-1.524;2023-02-16T08:54:31;98790.98;;;6.82;98.86
60246;BME280;46107;53.356;-1.524;2023-02-16T08:57:00;98810.06;;;6.54;98.82
60246;BME280;46107;53.356;-1.524;2023-02-16T08:59:28;98810.99;;;6.24;100.00
60246;BME280;46107;53.356;-1.524;2023-02-16T09:01:56;98806.75;;;6.57;100.00
60246;BME280;46107;53.356;-1.524;2023-02-16T09:04:25;98803.13;;;6.56;100.00
60246;BME280;46107;53.356;-1.524;2023-02-16T09:06:53;98801.95;;;6.58;99.36
60246;BME280;46107;53.356;-1.524;2023-02-16T09:09:21;98801.25;;;7.41;93.06
60246;BME280;46107;53.356;-1.524;2023-02-16T09:11:48;98809.14;;;7.17;94.03
60246;BME280;46107;53.356;-1.524;2023-02-16T09:14:18;98806.40;;;6.80;97.11
60246;BME280;46107;53.356;-1.524;2023-02-16T09:16:46;98811.53;;;6.85;97.76
60246;BME280;46107;53.356;-1.524;2023-02-16T09:19:15;98809.19;;;7.55;94.94
60246;BME280;46107;53.356;-1.524;2023-02-16T09:21:46;98817.75;;;6.68;95.58
60246;BME280;46107;53.356;-1.524;2023-02-16T09:24:14;98820.14;;;8.39;88.95
60246;BME280;46107;53.356;-1.524;2023-02-16T09:26:42;98813.77;;;7.54;92.63
60246;BME280;46107;53.356;-1.524;2023-02-16T09:29:11;98806.82;;;6.85;94.85
60246;BME280;46107;53.356;-1.524;2023-02-16T09:31:38;98805.98;;;8.22;88.51
60246;BME280;46107;53.356;-1.524;2023-02-16T09:34:14;98815.64;;;7.21;92.16
60246;BME280;46107;53.356;-1.524;2023-02-16T09:36:44;98821.24;;;8.02;88.80
60246;BME280;46107;53.356;-1.524;2023-02-16T09:39:12;98817.84;;;8.59;86.51
60246;BME280;46107;53.356;-1.524;2023-02-16T09:41:59;98814.31;;;8.10;90.30
60246;BME280;46107;53.356;-1.524;2023-02-16T09:44:37;98812.02;;;8.43;91.05
60246;BME280;46107;53.356;-1.524;2023-02-16T09:47:14;98823.54;;;7.37;94.61
60246;BME280;46107;53.356;-1.524;2023-02-16T09:49:46;98816.33;;;7.93;91.25
60246;BME280;46107;53.356;-1.524;2023-02-16T09:52:20;98822.37;;;7.22;93.91
60246;BME280;46107;53.356;-1.524;2023-02-16T09:54:52;98823.12;;;8.20;89.34
60246;BME280;46107;53.356;-1.524;2023-02-16T09:57:26;98832.62;;;6.78;94.00
60246;BME280;46107;53.356;-1.524;2023-02-16T10:00:05;98827.35;;;8.09;90.01
60246;BME280;46107;53.356;-1.524;2023-02-16T10:02:43;98827.34;;;7.75;95.51
60246;BME280;46107;53.356;-1.524;2023-02-16T10:05:18;98832.87;;;7.56;95.60
60246;BME280;46107;53.356;-1.524;2023-02-16T10:07:56;98836.11;;;7.58;97.82
60246;BME280;46107;53.356;-1.524;2023-02-16T10:10:30;98828.13;;;7.67;97.08
60246;BME280;46107;53.356;-1.524;2023-02-16T10:13:03;98819.55;;;8.16;92.97
60246;BME280;46107;53.356;-1.524;2023-02-16T10:15:34;98828.76;;;8.15;93.97
60246;BME280;46107;53.356;-1.524;2023-02-16T10:18:07;98827.63;;;7.74;96.14
60246;BME280;46107;53.356;-1.524;2023-02-16T10:20:44;98829.48;;;7.12;100.00
60246;BME280;46107;53.356;-1.524;2023-02-16T10:23:20;98835.20;;;7.10;98.11
60246;BME280;46107;53.356;-1.524;2023-02-16T10:25:54;98833.56;;;7.49;94.42
60246;BME280;46107;53.356;-1.524;2023-02-16T10:28:35;98826.42;;;8.55;92.65
60246;BME280;46107;53.356;-1.524;2023-02-16T10:31:12;98836.69;;;8.16;93.55
60246;BME280;46107;53.356;-1.524;2023-02-16T10:33:42;98826.26;;;8.19;91.71
60246;BME280;46107;53.356;-1.524;2023-02-16T10:36:19;98824.23;;;8.49;90.58
60246;BME280;46107;53.356;-1.524;2023-02-16T10:38:56;98824.12;;;8.70;88.64
60246;BME280;46107;53.356;-1.524;2023-02-16T10:41:31;98825.75;;;8.53;91.37
60246;BME280;46107;53.356;-1.524;2023-02-16T10:44:04;98816.23;;;8.90;89.12
60246;BME280;46107;53.356;-1.524;2023-02-16T10:46:40;98813.63;;;8.20;93.30
60246;BME280;46107;53.356;-1.524;2023-02-16T10:49:11;98806.44;;;8.44;90.76
60246;BME280;46107;53.356;-1.524;2023-02-16T10:51:41;98805.44;;;8.62;91.29
60246;BME280;46107;53.356;-1.524;2023-02-16T10:54:15;98806.11;;;9.30;86.81
60246;BME280;46107;53.356;-1.524;2023-02-16T10:56:50;98802.63;;;8.77;90.00
60246;BME280;46107;53.356;-1.524;2023-02-16T10:59:21;98798.63;;;9.84;85.37
60246;BME280;46107;53.356;-1.524;2023-02-16T11:01:51;98802.57;;;9.44;84.84
60246;BME280;46107;53.356;-1.524;2023-02-16T11:04:38;98802.75;;;10.35;82.96
60246;BME280;46107;53.356;-1.524;2023-02-16T11:07:09;98807.77;;;8.42;89.35
60246;BME280;46107;53.356;-1.524;2023-02-16T11:09:38;98809.71;;;8.59;91.58
60246;BME280;46107;53.356;-1.524;2023-02-16T11:12:21;98806.51;;;9.32;87.86
60246;BME280;46107;53.356;-1.524;2023-02-16T11:14:52;98804.80;;;9.44;89.45
60246;BME280;46107;53.356;-1.524;2023-02-16T11:17:22;98814.74;;;8.20;92.37
60246;BME280;46107;53.356;-1.524;2023-02-16T11:19:53;98807.45;;;8.65;90.89
60246;BME280;46107;53.356;-1.524;2023-02-16T11:22:28;98808.18;;;8.30;93.52
60246;BME280;46107;53.356;-1.524;2023-02-16T11:25:16;98811.69;;;9.62;88.25
60246;BME280;46107;53.356;-1.524;2023-02-16T11:27:50;98817.17;;;9.81;86.28
60246;BME280;46107;53.356;-1.524;2023-02-16T11:30:27;98820.96;;;8.82;89.79
60246;BME280;46107;53.356;-1.524;2023-02-16T11:32:55;98825.75;;;9.83;87.06
60246;BME280;46107;53.356;-1.524;2023-02-16T11:35:23;98824.63;;;10.74;81.88
60246;BME280;46107;53.356;-1.524;2023-02-16T11:37:51;98821.22;;;8.67;91.57
60246;BME280;46107;53.356;-1.524;2023-02-16T11:40:22;98811.23;;;10.44;83.74
60246;BME280;46107;53.356;-1.524;2023-02-16T11:42:51;98811.96;;;9.70;83.91
60246;BME280;46107;53.356;-1.524;2023-02-16T11:45:25;98823.18;;;10.33;82.37
60246;BME280;46107;53.356;-1.524;2023-02-16T11:47:55;98844.99;;;10.28;84.28
60246;BME280;46107;53.356;-1.524;2023-02-16T11:50:25;98835.01;;;10.03;85.44
60246;BME280;46107;53.356;-1.524;2023-02-16T11:52:55;98827.80;;;9.97;84.42
60246;BME280;46107;53.356;-1.524;2023-02-16T11:55:27;98833.94;;;9.58;86.99
60246;BME280;46107;53.356;-1.524;2023-02-16T11:58:13;98831.36;;;9.43;89.03
60246;BME280;46107;53.356;-1.524;2023-02-16T12:00:50;98849.94;;;9.29;90.96
60246;BME280;46107;53.356;-1.524;2023-02-16T12:03:49;98856.61;;;10.18;85.51
60246;BME280;46107;53.356;-1.524;2023-02-16T12:06:30;98847.74;;;9.67;89.39
60246;BME280;46107;53.356;-1.524;2023-02-16T12:09:08;98843.71;;;9.90;88.30
60246;BME280;46107;53.356;-1.524;2023-02-16T12:11:47;98830.03;;;9.77;90.23
60246;BME280;46107;53.356;-1.524;2023-02-16T12:14:27;98834.22;;;9.96;88.47
60246;BME280;46107;53.356;-1.524;2023-02-16T12:17:06;98832.19;;;10.49;86.75
60246;BME280;46107;53.356;-1.524;2023-02-16T12:19:41;98825.24;;;10.21;85.07
60246;BME280;46107;53.356;-1.524;2023-02-16T12:22:21;98828.33;;;10.76;83.56
60246;BME280;46107;53.356;-1.524;2023-02-16T12:25:01;98830.36;;;10.76;83.70
60246;BME280;46107;53.356;-1.524;2023-02-16T12:27:38;98830.18;;;11.05;81.16
60246;BME280;46107;53.356;-1.524;2023-02-16T12:30:23;98826.15;;;10.21;82.93
60246;BME280;46107;53.356;-1.524;2023-02-16T12:33:04;98827.92;;;11.01;81.97
60246;BME280;46107;53.356;-1.524;2023-02-16T12:35:49;98828.91;;;9.28;89.79
60246;BME280;46107;53.356;-1.524;2023-02-16T12:38:28;98831.13;;;9.97;87.96
60246;BME280;46107;53.356;-1.524;2023-02-16T12:41:09;98834.35;;;11.28;81.34
60246;BME280;46107;53.356;-1.524;2023-02-16T12:43:44;98834.61;;;11.34;80.52
60246;BME280;46107;53.356;-1.524;2023-02-16T12:46:18;98824.07;;;10.40;84.06
60246;BME280;46107;53.356;-1.524;2023-02-16T12:48:50;98826.85;;;11.07;80.97
60246;BME280;46107;53.356;-1.524;2023-02-16T12:51:21;98830.40;;;11.62;78.47
60246;BME280;46107;53.356;-1.524;2023-02-16T12:53:56;98829.59;;;10.82;81.55
60246;BME280;46107;53.356;-1.524;2023-02-16T12:56:30;98829.32;;;10.84;82.00
60246;BME280;46107;53.356;-1.524;2023-02-16T12:59:06;98828.06;;;12.05;77.75
60246;BME280;46107;53.356;-1.524;2023-02-16T13:01:40;98825.59;;;11.26;79.15
60246;BME280;46107;53.356;-1.524;2023-02-16T13:04:17;98822.92;;;11.29;78.66
60246;BME280;46107;53.356;-1.524;2023-02-16T13:06:49;98818.01;;;11.22;78.46
60246;BME280;46107;53.356;-1.524;2023-02-16T13:09:27;98810.64;;;11.42;78.43
60246;BME280;46107;53.356;-1.524;2023-02-16T13:12:00;98812.43;;;11.12;80.13
60246;BME280;46107;53.356;-1.524;2023-02-16T13:14:32;98813.38;;;10.38;83.84
60246;BME280;46107;53.356;-1.524;2023-02-16T13:17:03;98811.11;;;10.11;85.40
60246;BME280;46107;53.356;-1.524;2023-02-16T13:19:35;98814.50;;;10.67;84.04